Aviation Digital Data Service (ADDS)

Output produced by METARs form (2148 UTC 24 February 2018)
found at http://aviationweather.gov/adds/metars/
 
KMLU 242053Z 21014KT 10SM FEW046 SCT075 BKN090 26/18 A2987 RMK AO2 SLP113 T02560183 56018